sensor_id;sensor_type;location;lat;lon;timestamp;P1;durP1;ratioP1;P2;durP2;ratioP2
5391;SDS011;2719;53.624;9.786;2023-05-07T00:00:55;7.93;;;4.50;;
5391;SDS011;2719;53.624;9.786;2023-05-07T00:03:24;8.90;;;5.43;;
5391;SDS011;2719;53.624;9.786;2023-05-07T00:05:51;12.63;;;5.43;;
5391;SDS011;2719;53.624;9.786;2023-05-07T00:08:19;8.40;;;5.60;;
5391;SDS011;2719;53.624;9.786;2023-05-07T00:10:46;9.17;;;5.70;;
5391;SDS011;2719;53.624;9.786;2023-05-07T00:13:13;6.87;;;5.03;;
5391;SDS011;2719;53.624;9.786;2023-05-07T00:15:39;10.70;;;5.80;;
5391;SDS011;2719;53.624;9.786;2023-05-07T00:18:06;10.77;;;5.93;;
5391;SDS011;2719;53.624;9.786;2023-05-07T00:20:33;8.67;;;4.90;;
5391;SDS011;2719;53.624;9.786;2023-05-07T00:22:59;8.40;;;5.50;;
5391;SDS011;2719;53.624;9.786;2023-05-07T00:25:27;8.40;;;5.53;;
5391;SDS011;2719;53.624;9.786;2023-05-07T00:27:54;13.93;;;4.83;;
5391;SDS011;2719;53.624;9.786;2023-05-07T00:30:22;9.63;;;4.93;;
5391;SDS011;2719;53.624;9.786;2023-05-07T00:32:49;10.07;;;5.60;;
5391;SDS011;2719;53.624;9.786;2023-05-07T00:35:15;9.50;;;5.93;;
5391;SDS011;2719;53.624;9.786;2023-05-07T00:37:42;9.53;;;6.27;;
5391;SDS011;2719;53.624;9.786;2023-05-07T00:40:09;9.33;;;5.60;;
5391;SDS011;2719;53.624;9.786;2023-05-07T00:42:37;8.87;;;5.60;;
5391;SDS011;2719;53.624;9.786;2023-05-07T00:45:04;11.93;;;6.67;;
5391;SDS011;2719;53.624;9.786;2023-05-07T00:47:32;10.27;;;6.27;;
5391;SDS011;2719;53.624;9.786;2023-05-07T00:49:59;8.30;;;5.00;;
5391;SDS011;2719;53.624;9.786;2023-05-07T00:52:26;8.10;;;5.57;;
5391;SDS011;2719;53.624;9.786;2023-05-07T00:54:53;8.43;;;5.50;;
5391;SDS011;2719;53.624;9.786;2023-05-07T00:57:21;10.37;;;5.83;;
5391;SDS011;2719;53.624;9.786;2023-05-07T00:59:49;10.37;;;5.63;;
5391;SDS011;2719;53.624;9.786;2023-05-07T01:02:17;7.47;;;4.90;;
5391;SDS011;2719;53.624;9.786;2023-05-07T01:04:44;7.93;;;5.03;;
5391;SDS011;2719;53.624;9.786;2023-05-07T01:07:10;9.77;;;4.17;;
5391;SDS011;2719;53.624;9.786;2023-05-07T01:09:37;7.40;;;4.30;;
5391;SDS011;2719;53.624;9.786;2023-05-07T01:12:04;10.30;;;4.90;;
5391;SDS011;2719;53.624;9.786;2023-05-07T01:14:32;8.63;;;4.93;;
5391;SDS011;2719;53.624;9.786;2023-05-07T01:17:00;7.63;;;5.20;;
5391;SDS011;2719;53.624;9.786;2023-05-07T01:19:28;6.97;;;4.27;;
5391;SDS011;2719;53.624;9.786;2023-05-07T01:21:56;8.17;;;5.30;;
5391;SDS011;2719;53.624;9.786;2023-05-07T01:24:29;9.77;;;5.70;;
5391;SDS011;2719;53.624;9.786;2023-05-07T01:26:57;13.67;;;5.77;;
5391;SDS011;2719;53.624;9.786;2023-05-07T01:29:24;7.97;;;4.40;;
5391;SDS011;2719;53.624;9.786;2023-05-07T01:31:50;12.23;;;6.33;;
5391;SDS011;2719;53.624;9.786;2023-05-07T01:34:18;9.43;;;5.20;;
5391;SDS011;2719;53.624;9.786;2023-05-07T01:36:47;13.13;;;5.87;;
5391;SDS011;2719;53.624;9.786;2023-05-07T01:39:14;10.83;;;5.40;;
5391;SDS011;2719;53.624;9.786;2023-05-07T01:41:43;9.37;;;6.70;;
5391;SDS011;2719;53.624;9.786;2023-05-07T01:44:11;9.80;;;6.00;;
5391;SDS011;2719;53.624;9.786;2023-05-07T01:46:39;8.37;;;5.23;;
5391;SDS011;2719;53.624;9.786;2023-05-07T01:49:06;10.97;;;5.60;;
5391;SDS011;2719;53.624;9.786;2023-05-07T01:51:33;9.73;;;4.30;;
5391;SDS011;2719;53.624;9.786;2023-05-07T01:54:00;7.03;;;5.03;;
5391;SDS011;2719;53.624;9.786;2023-05-07T01:56:27;5.90;;;4.00;;
5391;SDS011;2719;53.624;9.786;2023-05-07T01:58:55;10.37;;;5.17;;
5391;SDS011;2719;53.624;9.786;2023-05-07T02:01:21;7.50;;;5.13;;
5391;SDS011;2719;53.624;9.786;2023-05-07T02:03:48;14.23;;;4.70;;
5391;SDS011;2719;53.624;9.786;2023-05-07T02:06:15;5.80;;;3.93;;
5391;SDS011;2719;53.624;9.786;2023-05-07T02:08:41;8.03;;;4.30;;
5391;SDS011;2719;53.624;9.786;2023-05-07T02:11:08;9.03;;;4.40;;
5391;SDS011;2719;53.624;9.786;2023-05-07T02:13:35;7.07;;;5.03;;
5391;SDS011;2719;53.624;9.786;2023-05-07T02:16:03;7.70;;;4.13;;
5391;SDS011;2719;53.624;9.786;2023-05-07T02:18:30;7.07;;;3.43;;
5391;SDS011;2719;53.624;9.786;2023-05-07T02:20:58;8.03;;;4.37;;
5391;SDS011;2719;53.624;9.786;2023-05-07T02:23:24;6.40;;;3.60;;
5391;SDS011;2719;53.624;9.786;2023-05-07T02:25:51;4.70;;;3.63;;
5391;SDS011;2719;53.624;9.786;2023-05-07T02:28:17;7.03;;;4.73;;
5391;SDS011;2719;53.624;9.786;2023-05-07T02:30:44;5.30;;;3.90;;
5391;SDS011;2719;53.624;9.786;2023-05-07T02:33:12;7.47;;;4.80;;
5391;SDS011;2719;53.624;9.786;2023-05-07T02:35:39;6.53;;;3.53;;
5391;SDS011;2719;53.624;9.786;2023-05-07T02:38:06;6.40;;;4.47;;
5391;SDS011;2719;53.624;9.786;2023-05-07T02:40:35;7.20;;;4.47;;
5391;SDS011;2719;53.624;9.786;2023-05-07T02:43:03;8.20;;;4.93;;
5391;SDS011;2719;53.624;9.786;2023-05-07T02:45:30;5.70;;;4.00;;
5391;SDS011;2719;53.624;9.786;2023-05-07T02:47:57;6.20;;;4.37;;
5391;SDS011;2719;53.624;9.786;2023-05-07T02:50:25;7.93;;;4.80;;
5391;SDS011;2719;53.624;9.786;2023-05-07T02:52:52;7.50;;;4.77;;
5391;SDS011;2719;53.624;9.786;2023-05-07T02:55:19;6.57;;;3.70;;
5391;SDS011;2719;53.624;9.786;2023-05-07T02:57:46;6.33;;;4.20;;
5391;SDS011;2719;53.624;9.786;2023-05-07T03:00:14;5.07;;;3.87;;
5391;SDS011;2719;53.624;9.786;2023-05-07T03:02:42;8.67;;;4.47;;
5391;SDS011;2719;53.624;9.786;2023-05-07T03:05:09;7.00;;;3.90;;
5391;SDS011;2719;53.624;9.786;2023-05-07T03:07:38;8.33;;;4.30;;
5391;SDS011;2719;53.624;9.786;2023-05-07T03:10:05;9.90;;;4.63;;
5391;SDS011;2719;53.624;9.786;2023-05-07T03:12:32;7.80;;;3.87;;
5391;SDS011;2719;53.624;9.786;2023-05-07T03:14:59;5.27;;;3.40;;
5391;SDS011;2719;53.624;9.786;2023-05-07T03:17:26;9.07;;;5.03;;
5391;SDS011;2719;53.624;9.786;2023-05-07T03:19:53;7.50;;;4.60;;
5391;SDS011;2719;53.624;9.786;2023-05-07T03:22:19;7.07;;;4.80;;
5391;SDS011;2719;53.624;9.786;2023-05-07T03:24:48;8.57;;;5.07;;
5391;SDS011;2719;53.624;9.786;2023-05-07T03:27:14;9.17;;;4.27;;
5391;SDS011;2719;53.624;9.786;2023-05-07T03:29:41;10.30;;;5.60;;
5391;SDS011;2719;53.624;9.786;2023-05-07T03:32:07;8.53;;;5.03;;
5391;SDS011;2719;53.624;9.786;2023-05-07T03:34:34;7.60;;;4.63;;
5391;SDS011;2719;53.624;9.786;2023-05-07T03:37:01;8.40;;;4.40;;
5391;SDS011;2719;53.624;9.786;2023-05-07T03:39:28;8.00;;;3.67;;
5391;SDS011;2719;53.624;9.786;2023-05-07T03:41:56;10.77;;;5.13;;
5391;SDS011;2719;53.624;9.786;2023-05-07T03:44:23;9.10;;;4.80;;
5391;SDS011;2719;53.624;9.786;2023-05-07T03:46:50;10.40;;;5.30;;
5391;SDS011;2719;53.624;9.786;2023-05-07T03:49:17;9.20;;;5.40;;
5391;SDS011;2719;53.624;9.786;2023-05-07T03:51:43;11.67;;;6.43;;
5391;SDS011;2719;53.624;9.786;2023-05-07T03:54:10;11.20;;;6.33;;
5391;SDS011;2719;53.624;9.786;2023-05-07T03:56:36;8.00;;;5.23;;
5391;SDS011;2719;53.624;9.786;2023-05-07T03:59:04;9.23;;;5.80;;
5391;SDS011;2719;53.624;9.786;2023-05-07T04:01:31;12.20;;;7.30;;
5391;SDS011;2719;53.624;9.786;2023-05-07T04:03:58;14.70;;;6.93;;
5391;SDS011;2719;53.624;9.786;2023-05-07T04:06:24;9.27;;;5.83;;
5391;SDS011;2719;53.624;9.786;2023-05-07T04:08:51;8.23;;;4.97;;
5391;SDS011;2719;53.624;9.786;2023-05-07T04:11:17;7.70;;;5.10;;
5391;SDS011;2719;53.624;9.786;2023-05-07T04:13:45;7.57;;;5.10;;
5391;SDS011;2719;53.624;9.786;2023-05-07T04:16:13;9.80;;;5.33;;
5391;SDS011;2719;53.624;9.786;2023-05-07T04:18:40;11.93;;;5.47;;
5391;SDS011;2719;53.624;9.786;2023-05-07T04:21:13;9.83;;;5.00;;
5391;SDS011;2719;53.624;9.786;2023-05-07T04:23:40;6.67;;;4.30;;
5391;SDS011;2719;53.624;9.786;2023-05-07T04:26:07;8.63;;;6.00;;
5391;SDS011;2719;53.624;9.786;2023-05-07T04:28:33;7.83;;;4.97;;
5391;SDS011;2719;53.624;9.786;2023-05-07T04:31:00;10.47;;;5.80;;
5391;SDS011;2719;53.624;9.786;2023-05-07T04:33:28;10.10;;;5.50;;
5391;SDS011;2719;53.624;9.786;2023-05-07T04:35:55;13.87;;;5.87;;
5391;SDS011;2719;53.624;9.786;2023-05-07T04:38:22;8.00;;;4.67;;
5391;SDS011;2719;53.624;9.786;2023-05-07T04:40:49;8.63;;;4.47;;
5391;SDS011;2719;53.624;9.786;2023-05-07T04:43:16;7.20;;;4.87;;
5391;SDS011;2719;53.624;9.786;2023-05-07T04:45:43;8.47;;;4.20;;
5391;SDS011;2719;53.624;9.786;2023-05-07T04:48:10;7.90;;;4.60;;
5391;SDS011;2719;53.624;9.786;2023-05-07T04:50:38;9.10;;;5.27;;
5391;SDS011;2719;53.624;9.786;2023-05-07T04:53:04;7.87;;;4.40;;
5391;SDS011;2719;53.624;9.786;2023-05-07T04:55:31;9.90;;;5.60;;
5391;SDS011;2719;53.624;9.786;2023-05-07T04:57:58;10.57;;;5.17;;
5391;SDS011;2719;53.624;9.786;2023-05-07T05:00:26;9.40;;;5.30;;
5391;SDS011;2719;53.624;9.786;2023-05-07T05:02:53;9.40;;;4.73;;
5391;SDS011;2719;53.624;9.786;2023-05-07T05:05:19;8.13;;;4.40;;
5391;SDS011;2719;53.624;9.786;2023-05-07T05:07:47;8.40;;;4.77;;
5391;SDS011;2719;53.624;9.786;2023-05-07T05:10:14;9.10;;;4.97;;
5391;SDS011;2719;53.624;9.786;2023-05-07T05:12:41;7.57;;;4.60;;
5391;SDS011;2719;53.624;9.786;2023-05-07T05:15:08;10.83;;;4.20;;
5391;SDS011;2719;53.624;9.786;2023-05-07T05:17:37;11.73;;;4.97;;
5391;SDS011;2719;53.624;9.786;2023-05-07T05:20:04;5.13;;;3.60;;
5391;SDS011;2719;53.624;9.786;2023-05-07T05:22:32;6.73;;;3.93;;
5391;SDS011;2719;53.624;9.786;2023-05-07T05:25:00;6.67;;;4.13;;
5391;SDS011;2719;53.624;9.786;2023-05-07T05:27:27;7.27;;;4.10;;
5391;SDS011;2719;53.624;9.786;2023-05-07T05:29:54;4.47;;;3.40;;
5391;SDS011;2719;53.624;9.786;2023-05-07T05:32:21;7.17;;;3.90;;
5391;SDS011;2719;53.624;9.786;2023-05-07T05:34:48;9.67;;;4.30;;
5391;SDS011;2719;53.624;9.786;2023-05-07T05:37:16;6.43;;;4.60;;
5391;SDS011;2719;53.624;9.786;2023-05-07T05:39:43;14.60;;;4.27;;
5391;SDS011;2719;53.624;9.786;2023-05-07T05:42:11;7.10;;;4.23;;
5391;SDS011;2719;53.624;9.786;2023-05-07T05:44:37;7.03;;;4.00;;
5391;SDS011;2719;53.624;9.786;2023-05-07T05:47:04;7.90;;;3.80;;
5391;SDS011;2719;53.624;9.786;2023-05-07T05:49:31;14.73;;;4.83;;
5391;SDS011;2719;53.624;9.786;2023-05-07T05:51:57;5.83;;;3.43;;
5391;SDS011;2719;53.624;9.786;2023-05-07T05:54:24;9.40;;;5.40;;
5391;SDS011;2719;53.624;9.786;2023-05-07T05:56:51;6.83;;;4.20;;
5391;SDS011;2719;53.624;9.786;2023-05-07T05:59:19;7.27;;;4.00;;
5391;SDS011;2719;53.624;9.786;2023-05-07T06:01:46;6.70;;;3.70;;
5391;SDS011;2719;53.624;9.786;2023-05-07T06:04:12;6.67;;;5.30;;
5391;SDS011;2719;53.624;9.786;2023-05-07T06:06:39;5.60;;;3.47;;
5391;SDS011;2719;53.624;9.786;2023-05-07T06:09:06;7.33;;;4.37;;
5391;SDS011;2719;53.624;9.786;2023-05-07T06:11:32;7.23;;;4.00;;
5391;SDS011;2719;53.624;9.786;2023-05-07T06:13:59;6.27;;;4.07;;
5391;SDS011;2719;53.624;9.786;2023-05-07T06:16:27;10.47;;;4.70;;
5391;SDS011;2719;53.624;9.786;2023-05-07T06:18:54;5.07;;;3.60;;
5391;SDS011;2719;53.624;9.786;2023-05-07T06:21:21;7.73;;;4.27;;
5391;SDS011;2719;53.624;9.786;2023-05-07T06:23:47;6.67;;;4.23;;
5391;SDS011;2719;53.624;9.786;2023-05-07T06:26:15;8.90;;;5.00;;
5391;SDS011;2719;53.624;9.786;2023-05-07T06:28:41;6.40;;;3.60;;
5391;SDS011;2719;53.624;9.786;2023-05-07T06:31:12;6.40;;;3.40;;
5391;SDS011;2719;53.624;9.786;2023-05-07T06:33:40;5.73;;;4.10;;
5391;SDS011;2719;53.624;9.786;2023-05-07T06:36:07;6.33;;;3.53;;
5391;SDS011;2719;53.624;9.786;2023-05-07T06:38:34;6.23;;;3.97;;
5391;SDS011;2719;53.624;9.786;2023-05-07T06:41:01;9.57;;;5.00;;
5391;SDS011;2719;53.624;9.786;2023-05-07T06:43:27;10.37;;;5.27;;
5391;SDS011;2719;53.624;9.786;2023-05-07T06:45:54;5.83;;;4.20;;
5391;SDS011;2719;53.624;9.786;2023-05-07T06:48:21;7.93;;;4.00;;
5391;SDS011;2719;53.624;9.786;2023-05-07T06:50:49;6.87;;;4.30;;
5391;SDS011;2719;53.624;9.786;2023-05-07T06:53:15;8.90;;;3.77;;
5391;SDS011;2719;53.624;9.786;2023-05-07T06:55:42;6.30;;;4.37;;
5391;SDS011;2719;53.624;9.786;2023-05-07T06:58:09;5.50;;;3.83;;
5391;SDS011;2719;53.624;9.786;2023-05-07T07:00:35;4.70;;;3.47;;
5391;SDS011;2719;53.624;9.786;2023-05-07T07:03:02;6.37;;;4.10;;
5391;SDS011;2719;53.624;9.786;2023-05-07T07:05:29;4.30;;;3.07;;
5391;SDS011;2719;53.624;9.786;2023-05-07T07:07:57;6.40;;;4.03;;
5391;SDS011;2719;53.624;9.786;2023-05-07T07:10:23;6.30;;;4.13;;
5391;SDS011;2719;53.624;9.786;2023-05-07T07:12:50;4.47;;;3.13;;
5391;SDS011;2719;53.624;9.786;2023-05-07T07:15:19;6.13;;;3.97;;
5391;SDS011;2719;53.624;9.786;2023-05-07T07:17:46;8.00;;;4.30;;
5391;SDS011;2719;53.624;9.786;2023-05-07T07:20:14;6.60;;;4.30;;
5391;SDS011;2719;53.624;9.786;2023-05-07T07:22:41;6.50;;;4.60;;
5391;SDS011;2719;53.624;9.786;2023-05-07T07:25:09;8.27;;;4.70;;
5391;SDS011;2719;53.624;9.786;2023-05-07T07:27:37;8.07;;;4.20;;
5391;SDS011;2719;53.624;9.786;2023-05-07T07:30:05;6.90;;;4.50;;
5391;SDS011;2719;53.624;9.786;2023-05-07T07:32:33;6.70;;;3.50;;
5391;SDS011;2719;53.624;9.786;2023-05-07T07:35:00;5.73;;;3.67;;
5391;SDS011;2719;53.624;9.786;2023-05-07T07:37:27;7.50;;;3.73;;
5391;SDS011;2719;53.624;9.786;2023-05-07T07:39:54;8.67;;;3.90;;
5391;SDS011;2719;53.624;9.786;2023-05-07T07:42:23;4.73;;;3.50;;
5391;SDS011;2719;53.624;9.786;2023-05-07T07:44:49;5.97;;;3.07;;
5391;SDS011;2719;53.624;9.786;2023-05-07T07:47:16;5.10;;;3.93;;
5391;SDS011;2719;53.624;9.786;2023-05-07T07:49:43;6.57;;;3.73;;
5391;SDS011;2719;53.624;9.786;2023-05-07T07:52:09;5.03;;;3.17;;
5391;SDS011;2719;53.624;9.786;2023-05-07T07:54:36;5.70;;;2.90;;
5391;SDS011;2719;53.624;9.786;2023-05-07T07:57:03;9.60;;;4.43;;
5391;SDS011;2719;53.624;9.786;2023-05-07T07:59:31;5.50;;;2.53;;
5391;SDS011;2719;53.624;9.786;2023-05-07T08:01:57;3.30;;;2.60;;
5391;SDS011;2719;53.624;9.786;2023-05-07T08:04:24;6.60;;;2.47;;
5391;SDS011;2719;53.624;9.786;2023-05-07T08:06:51;5.37;;;3.63;;
5391;SDS011;2719;53.624;9.786;2023-05-07T08:09:19;5.23;;;3.27;;
5391;SDS011;2719;53.624;9.786;2023-05-07T08:11:46;6.00;;;3.37;;
5391;SDS011;2719;53.624;9.786;2023-05-07T08:14:12;4.40;;;2.77;;
5391;SDS011;2719;53.624;9.786;2023-05-07T08:16:42;3.63;;;2.60;;
5391;SDS011;2719;53.624;9.786;2023-05-07T08:19:08;4.70;;;3.20;;
5391;SDS011;2719;53.624;9.786;2023-05-07T08:21:38;4.90;;;3.00;;
5391;SDS011;2719;53.624;9.786;2023-05-07T08:24:05;5.07;;;3.30;;
5391;SDS011;2719;53.624;9.786;2023-05-07T08:26:32;4.03;;;3.17;;
5391;SDS011;2719;53.624;9.786;2023-05-07T08:29:00;5.50;;;3.23;;
5391;SDS011;2719;53.624;9.786;2023-05-07T08:31:27;3.93;;;2.83;;
5391;SDS011;2719;53.624;9.786;2023-05-07T08:33:55;3.20;;;2.30;;
5391;SDS011;2719;53.624;9.786;2023-05-07T08:36:23;5.03;;;2.60;;
5391;SDS011;2719;53.624;9.786;2023-05-07T08:38:49;3.90;;;2.63;;
5391;SDS011;2719;53.624;9.786;2023-05-07T08:41:16;3.77;;;2.90;;
5391;SDS011;2719;53.624;9.786;2023-05-07T08:43:43;4.43;;;2.60;;
5391;SDS011;2719;53.624;9.786;2023-05-07T08:46:13;3.80;;;3.40;;
5391;SDS011;2719;53.624;9.786;2023-05-07T08:48:43;10.63;;;3.00;;
5391;SDS011;2719;53.624;9.786;2023-05-07T08:51:12;7.00;;;2.70;;
5391;SDS011;2719;53.624;9.786;2023-05-07T08:53:40;5.03;;;3.23;;
5391;SDS011;2719;53.624;9.786;2023-05-07T08:56:08;4.07;;;3.13;;
5391;SDS011;2719;53.624;9.786;2023-05-07T08:58:35;3.70;;;2.40;;
5391;SDS011;2719;53.624;9.786;2023-05-07T09:01:02;9.33;;;3.07;;
5391;SDS011;2719;53.624;9.786;2023-05-07T09:03:33;5.40;;;3.40;;
5391;SDS011;2719;53.624;9.786;2023-05-07T09:05:59;3.33;;;2.50;;
5391;SDS011;2719;53.624;9.786;2023-05-07T09:08:27;5.70;;;2.83;;
5391;SDS011;2719;53.624;9.786;2023-05-07T09:10:54;6.00;;;2.60;;
5391;SDS011;2719;53.624;9.786;2023-05-07T09:13:21;5.13;;;3.20;;
5391;SDS011;2719;53.624;9.786;2023-05-07T09:15:47;4.13;;;2.70;;
5391;SDS011;2719;53.624;9.786;2023-05-07T09:18:14;5.00;;;2.90;;
5391;SDS011;2719;53.624;9.786;2023-05-07T09:20:41;5.20;;;2.87;;
5391;SDS011;2719;53.624;9.786;2023-05-07T09:23:08;6.43;;;3.60;;
5391;SDS011;2719;53.624;9.786;2023-05-07T09:25:36;6.83;;;3.30;;
5391;SDS011;2719;53.624;9.786;2023-05-07T09:28:04;4.70;;;2.93;;
5391;SDS011;2719;53.624;9.786;2023-05-07T09:30:32;4.73;;;3.37;;
5391;SDS011;2719;53.624;9.786;2023-05-07T09:33:00;3.63;;;2.50;;
5391;SDS011;2719;53.624;9.786;2023-05-07T09:35:28;4.70;;;3.33;;
5391;SDS011;2719;53.624;9.786;2023-05-07T09:37:56;10.50;;;4.40;;
5391;SDS011;2719;53.624;9.786;2023-05-07T09:40:24;3.70;;;3.30;;
5391;SDS011;2719;53.624;9.786;2023-05-07T09:42:53;6.13;;;2.83;;
5391;SDS011;2719;53.624;9.786;2023-05-07T09:45:24;4.30;;;3.10;;
5391;SDS011;2719;53.624;9.786;2023-05-07T09:47:53;7.07;;;3.60;;
5391;SDS011;2719;53.624;9.786;2023-05-07T09:50:21;3.40;;;2.80;;
5391;SDS011;2719;53.624;9.786;2023-05-07T09:52:52;5.03;;;3.10;;
5391;SDS011;2719;53.624;9.786;2023-05-07T09:55:20;3.47;;;2.40;;
5391;SDS011;2719;53.624;9.786;2023-05-07T09:57:47;4.27;;;3.00;;
5391;SDS011;2719;53.624;9.786;2023-05-07T10:00:18;4.57;;;2.70;;
5391;SDS011;2719;53.624;9.786;2023-05-07T10:02:46;7.13;;;3.57;;
5391;SDS011;2719;53.624;9.786;2023-05-07T10:05:16;6.23;;;1.97;;
5391;SDS011;2719;53.624;9.786;2023-05-07T10:07:44;3.97;;;2.50;;
5391;SDS011;2719;53.624;9.786;2023-05-07T10:10:12;3.43;;;2.90;;
5391;SDS011;2719;53.624;9.786;2023-05-07T10:12:40;4.83;;;3.27;;
5391;SDS011;2719;53.624;9.786;2023-05-07T10:15:07;3.90;;;3.00;;
5391;SDS011;2719;53.624;9.786;2023-05-07T10:17:37;3.83;;;2.70;;
5391;SDS011;2719;53.624;9.786;2023-05-07T10:20:05;3.83;;;3.03;;
5391;SDS011;2719;53.624;9.786;2023-05-07T10:22:34;7.00;;;3.03;;
5391;SDS011;2719;53.624;9.786;2023-05-07T10:25:05;4.53;;;2.53;;
5391;SDS011;2719;53.624;9.786;2023-05-07T10:27:35;6.10;;;2.77;;
5391;SDS011;2719;53.624;9.786;2023-05-07T10:30:07;3.33;;;2.67;;
5391;SDS011;2719;53.624;9.786;2023-05-07T10:32:44;2.30;;;2.10;;
5391;SDS011;2719;53.624;9.786;2023-05-07T10:35:16;5.23;;;2.50;;
5391;SDS011;2719;53.624;9.786;2023-05-07T10:37:46;6.43;;;3.50;;
5391;SDS011;2719;53.624;9.786;2023-05-07T10:40:14;3.73;;;2.90;;
5391;SDS011;2719;53.624;9.786;2023-05-07T10:42:52;6.13;;;3.50;;
5391;SDS011;2719;53.624;9.786;2023-05-07T10:45:21;4.53;;;2.60;;
5391;SDS011;2719;53.624;9.786;2023-05-07T10:48:08;4.27;;;3.27;;
5391;SDS011;2719;53.624;9.786;2023-05-07T10:50:36;4.60;;;3.07;;
5391;SDS011;2719;53.624;9.786;2023-05-07T10:53:22;4.10;;;2.80;;
5391;SDS011;2719;53.624;9.786;2023-05-07T10:55:51;2.80;;;2.50;;
5391;SDS011;2719;53.624;9.786;2023-05-07T10:58:33;3.33;;;2.43;;
5391;SDS011;2719;53.624;9.786;2023-05-07T11:01:02;3.73;;;2.77;;
5391;SDS011;2719;53.624;9.786;2023-05-07T11:03:30;5.70;;;2.70;;
5391;SDS011;2719;53.624;9.786;2023-05-07T11:06:09;2.67;;;2.47;;
5391;SDS011;2719;53.624;9.786;2023-05-07T11:08:53;4.20;;;2.80;;
5391;SDS011;2719;53.624;9.786;2023-05-07T11:11:28;11.60;;;3.10;;
5391;SDS011;2719;53.624;9.786;2023-05-07T11:14:10;5.10;;;2.80;;
5391;SDS011;2719;53.624;9.786;2023-05-07T11:16:37;5.03;;;3.40;;
5391;SDS011;2719;53.624;9.786;2023-05-07T11:19:07;2.40;;;2.20;;
5391;SDS011;2719;53.624;9.786;2023-05-07T11:21:35;3.00;;;2.43;;
5391;SDS011;2719;53.624;9.786;2023-05-07T11:24:02;14.20;;;3.00;;
5391;SDS011;2719;53.624;9.786;2023-05-07T11:26:31;9.63;;;3.00;;
5391;SDS011;2719;53.624;9.786;2023-05-07T11:29:10;5.77;;;2.67;;
5391;SDS011;2719;53.624;9.786;2023-05-07T11:31:37;3.73;;;2.37;;
5391;SDS011;2719;53.624;9.786;2023-05-07T11:34:04;2.90;;;2.10;;
5391;SDS011;2719;53.624;9.786;2023-05-07T11:36:33;2.27;;;2.07;;
5391;SDS011;2719;53.624;9.786;2023-05-07T11:39:01;4.20;;;2.00;;
5391;SDS011;2719;53.624;9.786;2023-05-07T11:41:34;4.80;;;2.40;;
5391;SDS011;2719;53.624;9.786;2023-05-07T11:44:02;3.30;;;3.00;;
5391;SDS011;2719;53.624;9.786;2023-05-07T11:46:29;3.87;;;2.47;;
5391;SDS011;2719;53.624;9.786;2023-05-07T11:48:56;2.33;;;1.90;;
5391;SDS011;2719;53.624;9.786;2023-05-07T11:51:23;2.27;;;2.17;;
5391;SDS011;2719;53.624;9.786;2023-05-07T11:53:53;2.90;;;1.83;;
5391;SDS011;2719;53.624;9.786;2023-05-07T11:56:20;3.67;;;3.00;;
5391;SDS011;2719;53.624;9.786;2023-05-07T11:58:47;2.97;;;2.70;;
5391;SDS011;2719;53.624;9.786;2023-05-07T12:01:15;3.07;;;1.83;;
5391;SDS011;2719;53.624;9.786;2023-05-07T12:03:43;2.23;;;1.60;;
5391;SDS011;2719;53.624;9.786;2023-05-07T12:06:11;2.70;;;1.80;;
5391;SDS011;2719;53.624;9.786;2023-05-07T12:08:38;2.13;;;1.80;;
5391;SDS011;2719;53.624;9.786;2023-05-07T12:11:12;2.27;;;2.07;;
5391;SDS011;2719;53.624;9.786;2023-05-07T12:13:41;3.40;;;2.67;;
5391;SDS011;2719;53.624;9.786;2023-05-07T12:16:08;2.60;;;2.37;;
5391;SDS011;2719;53.624;9.786;2023-05-07T12:18:35;2.17;;;1.80;;
5391;SDS011;2719;53.624;9.786;2023-05-07T12:21:03;2.50;;;1.80;;
5391;SDS011;2719;53.624;9.786;2023-05-07T12:23:31;3.10;;;2.20;;
5391;SDS011;2719;53.624;9.786;2023-05-07T12:25:58;1.70;;;1.60;;
5391;SDS011;2719;53.624;9.786;2023-05-07T12:28:27;3.30;;;1.73;;
5391;SDS011;2719;53.624;9.786;2023-05-07T12:30:55;2.97;;;1.67;;
5391;SDS011;2719;53.624;9.786;2023-05-07T12:33:23;2.53;;;2.17;;
5391;SDS011;2719;53.624;9.786;2023-05-07T12:35:52;2.80;;;1.73;;
5391;SDS011;2719;53.624;9.786;2023-05-07T12:38:20;4.13;;;1.70;;
5391;SDS011;2719;53.624;9.786;2023-05-07T12:40:48;9.07;;;2.17;;
5391;SDS011;2719;53.624;9.786;2023-05-07T12:43:16;4.40;;;2.63;;
5391;SDS011;2719;53.624;9.786;2023-05-07T12:45:45;2.73;;;2.10;;
5391;SDS011;2719;53.624;9.786;2023-05-07T12:48:13;2.40;;;1.97;;
5391;SDS011;2719;53.624;9.786;2023-05-07T12:50:40;4.17;;;1.70;;
5391;SDS011;2719;53.624;9.786;2023-05-07T12:53:07;1.80;;;1.70;;
5391;SDS011;2719;53.624;9.786;2023-05-07T12:55:40;4.20;;;2.10;;
5391;SDS011;2719;53.624;9.786;2023-05-07T12:58:08;1.73;;;1.60;;
5391;SDS011;2719;53.624;9.786;2023-05-07T13:00:40;2.13;;;1.90;;
5391;SDS011;2719;53.624;9.786;2023-05-07T13:03:10;4.10;;;1.50;;
5391;SDS011;2719;53.624;9.786;2023-05-07T13:05:36;1.63;;;1.00;;
5391;SDS011;2719;53.624;9.786;2023-05-07T13:08:03;2.20;;;1.50;;
5391;SDS011;2719;53.624;9.786;2023-05-07T13:10:30;6.17;;;1.40;;
5391;SDS011;2719;53.624;9.786;2023-05-07T13:12:57;1.77;;;1.53;;
5391;SDS011;2719;53.624;9.786;2023-05-07T13:15:24;1.70;;;1.17;;
5391;SDS011;2719;53.624;9.786;2023-05-07T13:17:52;1.60;;;1.37;;
5391;SDS011;2719;53.624;9.786;2023-05-07T13:20:20;1.47;;;0.90;;
5391;SDS011;2719;53.624;9.786;2023-05-07T13:22:46;1.63;;;1.37;;
5391;SDS011;2719;53.624;9.786;2023-05-07T13:25:13;3.73;;;1.57;;
5391;SDS011;2719;53.624;9.786;2023-05-07T13:27:40;1.40;;;1.00;;
5391;SDS011;2719;53.624;9.786;2023-05-07T13:30:07;2.13;;;1.00;;
5391;SDS011;2719;53.624;9.786;2023-05-07T13:32:34;1.10;;;1.00;;
5391;SDS011;2719;53.624;9.786;2023-05-07T13:35:00;1.40;;;1.20;;
5391;SDS011;2719;53.624;9.786;2023-05-07T13:37:29;1.20;;;0.93;;
5391;SDS011;2719;53.624;9.786;2023-05-07T13:39:55;6.63;;;0.90;;
5391;SDS011;2719;53.624;9.786;2023-05-07T13:42:22;3.13;;;1.13;;
5391;SDS011;2719;53.624;9.786;2023-05-07T13:44:49;0.93;;;0.83;;
5391;SDS011;2719;53.624;9.786;2023-05-07T13:47:15;2.80;;;1.10;;
5391;SDS011;2719;53.624;9.786;2023-05-07T13:49:42;3.20;;;1.23;;
5391;SDS011;2719;53.624;9.786;2023-05-07T13:52:09;1.80;;;1.27;;
5391;SDS011;2719;53.624;9.786;2023-05-07T13:54:37;0.83;;;0.80;;
5391;SDS011;2719;53.624;9.786;2023-05-07T13:57:04;1.30;;;1.20;;
5391;SDS011;2719;53.624;9.786;2023-05-07T13:59:31;2.03;;;1.20;;
5391;SDS011;2719;53.624;9.786;2023-05-07T14:01:57;1.87;;;1.67;;
5391;SDS011;2719;53.624;9.786;2023-05-07T14:04:24;1.07;;;0.97;;
5391;SDS011;2719;53.624;9.786;2023-05-07T14:06:51;1.57;;;1.47;;
5391;SDS011;2719;53.624;9.786;2023-05-07T14:09:18;1.37;;;0.80;;
5391;SDS011;2719;53.624;9.786;2023-05-07T14:11:45;1.37;;;1.27;;
5391;SDS011;2719;53.624;9.786;2023-05-07T14:14:16;1.23;;;0.80;;
5391;SDS011;2719;53.624;9.786;2023-05-07T14:16:42;1.10;;;1.00;;
5391;SDS011;2719;53.624;9.786;2023-05-07T14:19:09;1.30;;;0.90;;
5391;SDS011;2719;53.624;9.786;2023-05-07T14:21:36;1.00;;;0.90;;
5391;SDS011;2719;53.624;9.786;2023-05-07T14:24:03;1.23;;;1.13;;
5391;SDS011;2719;53.624;9.786;2023-05-07T14:26:29;0.90;;;0.83;;
5391;SDS011;2719;53.624;9.786;2023-05-07T14:28:57;8.70;;;1.60;;
5391;SDS011;2719;53.624;9.786;2023-05-07T14:31:24;1.50;;;0.93;;
5391;SDS011;2719;53.624;9.786;2023-05-07T14:33:51;1.70;;;1.00;;
5391;SDS011;2719;53.624;9.786;2023-05-07T14:36:18;5.17;;;0.80;;
5391;SDS011;2719;53.624;9.786;2023-05-07T14:38:47;1.13;;;0.87;;
5391;SDS011;2719;53.624;9.786;2023-05-07T14:41:14;1.00;;;0.90;;
5391;SDS011;2719;53.624;9.786;2023-05-07T14:43:41;0.83;;;0.83;;
5391;SDS011;2719;53.624;9.786;2023-05-07T14:46:10;2.20;;;0.90;;
5391;SDS011;2719;53.624;9.786;2023-05-07T14:48:36;0.73;;;0.70;;
5391;SDS011;2719;53.624;9.786;2023-05-07T14:51:03;1.47;;;0.83;;
5391;SDS011;2719;53.624;9.786;2023-05-07T14:53:30;2.03;;;1.33;;
5391;SDS011;2719;53.624;9.786;2023-05-07T14:55:56;2.73;;;0.80;;
5391;SDS011;2719;53.624;9.786;2023-05-07T14:58:23;2.00;;;0.70;;
5391;SDS011;2719;53.624;9.786;2023-05-07T15:00:50;0.90;;;0.77;;
5391;SDS011;2719;53.624;9.786;2023-05-07T15:03:18;1.00;;;0.90;;
5391;SDS011;2719;53.624;9.786;2023-05-07T15:05:44;1.43;;;0.77;;
5391;SDS011;2719;53.624;9.786;2023-05-07T15:08:11;3.13;;;0.83;;
5391;SDS011;2719;53.624;9.786;2023-05-07T15:10:38;1.83;;;0.70;;
5391;SDS011;2719;53.624;9.786;2023-05-07T15:13:06;1.90;;;0.70;;
5391;SDS011;2719;53.624;9.786;2023-05-07T15:15:33;1.00;;;0.70;;
5391;SDS011;2719;53.624;9.786;2023-05-07T15:18:00;3.90;;;0.63;;